CYMX/YMX METAR and TAF weather

Enter ICAO airport designator
Station Type Date Time Source
CYMX METAR 2021/09/27 07:00 UTC NOAA

CYMX 270700Z 00000KT 25SM SCT062 BKN100 11/09 A2979 RMK SC3AC4 SLP090


Station Type Date Time Source
CYMX Decoded METAR 2021/09/27 07:00 UTC NOAA

Montreal / Mirabel, Canada (CYMX) 45-41N 074-02W
Sep 27, 2021 - 03:00 AM EDT / 2021.09.27 0700 UTC
Wind: Calm:0
Visibility: 25 mile(s):0
Sky conditions: mostly cloudy
Temperature: 51 F (11 C)
Dew Point: 48 F (9 C)
Relative Humidity: 87%
Pressure (altimeter): 29.79 in. Hg (1008 hPa)
ob: CYMX 270700Z 00000KT 25SM SCT062 BKN100 11/09 A2979 RMK SC3AC4 SLP090
cycle: 7

Station Type Date Time Source
CYMX TAF 2021/09/27 06:42 UTC NOAA

TAF CYMX 270538Z 2706/2806 VRB03KT P6SM BKN080
FM270900 26007KT P6SM SCT060
TEMPO 2709/2711 3SM BR
FM271100 25007KT P6SM BKN030
TEMPO 2711/2718 5SM -SHRA BR OVC020
BECMG 2712/2714 25010G20KT
FM272000 27010G20KT P6SM BKN050
FM280000 31007KT P6SM FEW050
BECMG 2803/2805 34005KT
RMK NXT FCST BY 271200Z

Example: see airport list